Time;durP1;ratioP1;P1;durP2;ratioP2;P2;SDS_P1;SDS_P2;PMS_P1;PMS_P2;Temp;Humidity;BMP_temperature;BMP_pressure;BME280_temperature;BME280_humidity;BME280_pressure;Samples;Min_cycle;Max_cycle;Signal;HPM_P1;HPM_P2
2022/09/28 00:00:20;;;;;;;3.45;2.30;;;;;;;11.25;100.00;93665.63;5133256;27;20201;-79
2022/09/28 00:02:48;;;;;;;3.78;2.28;;;;;;;11.19;100.00;93656.22;5133459;27;20282;-79
2022/09/28 00:05:15;;;;;;;4.32;2.58;;;;;;;11.19;100.00;93650.81;5132754;27;20284;-79
2022/09/28 00:07:42;;;;;;;3.05;2.25;;;;;;;11.13;100.00;93652.22;5133015;27;20229;-79
2022/09/28 00:10:10;;;;;;;4.35;2.30;;;;;;;11.22;100.00;93644.66;5133206;27;20269;-78
2022/09/28 00:12:36;;;;;;;3.97;2.55;;;;;;;11.16;100.00;93646.09;5132547;27;20664;-79
2022/09/28 00:15:04;;;;;;;3.28;2.22;;;;;;;11.26;100.00;93645.50;5132826;27;20197;-78
2022/09/28 00:17:31;;;;;;;4.53;2.38;;;;;;;11.19;100.00;93642.66;5132946;27;20636;-78
2022/09/28 00:19:59;;;;;;;3.08;2.08;;;;;;;11.12;100.00;93639.00;5132840;27;20232;-79
2022/09/28 00:22:26;;;;;;;3.00;2.17;;;;;;;11.03;100.00;93647.34;5132597;27;20204;-79
2022/09/28 00:24:53;;;;;;;6.22;2.20;;;;;;;11.02;100.00;93648.50;5132234;27;20228;-78
2022/09/28 00:27:19;;;;;;;2.90;2.13;;;;;;;11.06;100.00;93637.72;5132817;27;20189;-79
2022/09/28 00:29:46;;;;;;;2.92;2.10;;;;;;;11.03;100.00;93625.66;5132884;27;20322;-79
2022/09/28 00:32:14;;;;;;;3.15;2.00;;;;;;;10.96;100.00;93639.06;5132730;27;20257;-78
2022/09/28 00:34:44;;;;;;;4.07;1.92;;;;;;;10.98;100.00;93651.13;5132642;27;20727;-79
2022/09/28 00:37:13;;;;;;;3.72;2.20;;;;;;;10.91;100.00;93645.56;5132820;27;20612;-79
2022/09/28 00:39:42;;;;;;;2.25;1.70;;;;;;;10.82;100.00;93641.44;5132840;27;20227;-79
2022/09/28 00:42:15;;;;;;;2.78;2.10;;;;;;;10.81;100.00;93646.06;5132580;27;20295;-78
2022/09/28 00:44:46;;;;;;;3.70;1.63;;;;;;;10.84;100.00;93650.00;5132882;27;20274;-78
2022/09/28 00:47:39;;;;;;;3.17;2.45;;;;;;;10.79;100.00;93636.75;5133229;27;20200;-79
2022/09/28 00:50:12;;;;;;;5.70;2.50;;;;;;;10.84;100.00;93634.53;5132166;27;20248;-79
2022/09/28 00:52:46;;;;;;;2.28;1.50;;;;;;;10.68;100.00;93642.69;5131644;27;20693;-78
2022/09/28 00:55:16;;;;;;;4.40;2.03;;;;;;;10.71;100.00;93640.41;5132202;27;20196;-78
2022/09/28 00:57:49;;;;;;;4.53;2.10;;;;;;;10.65;100.00;93638.00;5132818;27;20201;-78
2022/09/28 01:00:16;;;;;;;5.03;2.08;;;;;;;10.68;100.00;93639.19;5131731;27;20185;-79
2022/09/28 01:02:44;;;;;;;3.03;1.55;;;;;;;10.73;100.00;93643.56;5132021;27;20212;-80
2022/09/28 01:05:12;;;;;;;2.47;1.73;;;;;;;10.78;100.00;93640.59;5118934;27;20321;-79
2022/09/28 01:07:41;;;;;;;3.28;2.15;;;;;;;10.69;100.00;93644.25;5132072;27;20274;-79
2022/09/28 01:10:08;;;;;;;2.60;1.88;;;;;;;10.73;100.00;93644.34;5131664;27;20233;-78
2022/09/28 01:12:35;;;;;;;3.50;1.80;;;;;;;10.65;100.00;93638.00;5132457;27;20197;-79
2022/09/28 01:15:05;;;;;;;4.22;2.03;;;;;;;10.72;100.00;93650.91;5133106;27;20205;-79
2022/09/28 01:17:40;;;;;;;3.03;1.77;;;;;;;10.77;100.00;93644.44;5132638;27;20203;-79
2022/09/28 01:20:23;;;;;;;4.03;1.75;;;;;;;10.72;100.00;93647.41;5132365;27;20193;-79
2022/09/28 01:23:25;;;;;;;4.45;1.30;;;;;;;10.78;100.00;93644.09;5132149;27;20265;-78
2022/09/28 01:25:57;;;;;;;2.58;1.95;;;;;;;10.73;100.00;93643.56;5129986;27;20224;-78
2022/09/28 01:28:28;;;;;;;4.20;2.00;;;;;;;10.69;100.00;93648.91;5132314;27;20632;-78
2022/09/28 01:31:06;;;;;;;2.42;1.50;;;;;;;10.71;100.00;93656.66;5111915;28;20197;-78
2022/09/28 01:33:39;;;;;;;2.40;1.75;;;;;;;10.58;100.00;93654.06;5127045;27;20419;-78
2022/09/28 01:36:12;;;;;;;4.68;1.70;;;;;;;10.65;100.00;93640.72;5132276;27;20189;-81
2022/09/28 01:38:44;;;;;;;1.52;1.23;;;;;;;10.56;100.00;93660.97;5131546;27;20523;-77
2022/09/28 01:41:13;;;;;;;2.05;1.40;;;;;;;10.50;100.00;93662.38;5131539;27;20200;-78
2022/09/28 01:43:45;;;;;;;1.92;1.42;;;;;;;10.42;100.00;93645.16;5131451;27;20249;-77
2022/09/28 01:46:17;;;;;;;2.42;1.83;;;;;;;10.44;100.00;93626.66;5131371;27;20217;-78
2022/09/28 01:48:48;;;;;;;0.90;0.80;;;;;;;10.58;100.00;93664.91;5131508;27;20212;-79
2022/09/28 01:51:19;;;;;;;2.42;1.83;;;;;;;10.53;100.00;93667.88;5130945;27;20217;-79
2022/09/28 01:53:51;;;;;;;2.83;1.83;;;;;;;10.51;100.00;93639.59;5131196;27;20217;-79
2022/09/28 01:56:25;;;;;;;3.22;1.48;;;;;;;10.62;100.00;93646.81;5130857;27;20246;-80
2022/09/28 01:58:57;;;;;;;1.88;1.30;;;;;;;10.72;100.00;93663.66;5131123;27;20185;-79
2022/09/28 02:01:28;;;;;;;2.10;1.77;;;;;;;10.86;100.00;93670.19;5130980;27;20185;-78
2022/09/28 02:04:01;;;;;;;5.32;1.80;;;;;;;10.86;100.00;93653.94;5130304;27;20189;-78
2022/09/28 02:06:34;;;;;;;2.28;1.50;;;;;;;10.86;100.00;93659.34;5130293;27;20193;-78
2022/09/28 02:09:08;;;;;;;2.67;1.85;;;;;;;10.75;100.00;93673.81;5131086;27;20636;-79
2022/09/28 02:11:38;;;;;;;2.22;1.60;;;;;;;10.80;100.00;93659.97;5131011;27;20197;-79
2022/09/28 02:14:10;;;;;;;1.80;1.60;;;;;;;10.78;100.00;93656.84;5131245;27;20209;-80
2022/09/28 02:16:40;;;;;;;5.40;2.10;;;;;;;10.76;100.00;93669.97;5131217;27;20234;-79
2022/09/28 02:19:10;;;;;;;2.60;2.17;;;;;;;10.67;100.00;93653.88;5130813;27;20565;-80
2022/09/28 02:21:42;;;;;;;2.67;1.77;;;;;;;10.72;100.00;93666.38;5130261;27;20911;-79
2022/09/28 02:24:16;;;;;;;2.08;1.58;;;;;;;10.58;100.00;93670.31;5130753;27;20280;-80
2022/09/28 02:26:48;;;;;;;3.22;1.80;;;;;;;10.45;100.00;93660.72;5130699;27;20288;-79
2022/09/28 02:29:16;;;;;;;2.75;1.88;;;;;;;10.65;100.00;93658.88;5130660;27;20207;-81
2022/09/28 02:31:43;;;;;;;5.78;2.22;;;;;;;10.66;100.00;93661.22;5130893;27;20205;-79
2022/09/28 02:34:10;;;;;;;1.92;1.52;;;;;;;10.51;100.00;93659.31;5110155;28;20244;-79
2022/09/28 02:36:37;;;;;;;3.08;1.90;;;;;;;10.58;100.00;93667.59;5123547;27;20193;-79
2022/09/28 02:39:05;;;;;;;2.92;1.80;;;;;;;10.59;100.00;93671.09;5130609;27;20224;-78
2022/09/28 02:41:46;;;;;;;3.70;2.15;;;;;;;10.57;100.00;93663.31;5130408;27;20889;-78
2022/09/28 02:44:29;;;;;;;6.43;2.60;;;;;;;10.52;100.00;93669.00;5130372;27;20709;-79
2022/09/28 02:47:02;;;;;;;1.60;1.40;;;;;;;10.67;100.00;93662.78;5130104;27;20719;-78
2022/09/28 02:49:38;;;;;;;5.25;2.70;;;;;;;10.77;100.00;93666.09;5130308;27;20590;-78
2022/09/28 02:52:26;;;;;;;4.35;2.92;;;;;;;10.74;100.00;93666.81;5130124;27;20272;-79
2022/09/28 02:55:10;;;;;;;2.95;1.75;;;;;;;10.73;100.00;93676.84;5130383;27;20237;-80
2022/09/28 02:57:48;;;;;;;3.53;2.28;;;;;;;10.69;100.00;93676.75;5130209;27;20228;-79
2022/09/28 03:00:19;;;;;;;3.42;2.38;;;;;;;10.66;100.00;93672.03;5109794;28;20193;-78
2022/09/28 03:02:57;;;;;;;4.78;3.22;;;;;;;10.57;100.00;93674.16;5109729;28;20215;-79
2022/09/28 03:05:32;;;;;;;8.48;2.40;;;;;;;10.55;100.00;93671.00;5120422;28;20822;-79
2022/09/28 03:08:02;;;;;;;4.47;2.55;;;;;;;10.52;100.00;93682.53;5130821;27;20261;-79
2022/09/28 03:10:38;;;;;;;3.80;1.63;;;;;;;10.37;100.00;93677.94;5130491;27;20273;-80
2022/09/28 03:13:06;;;;;;;5.18;2.28;;;;;;;10.38;100.00;93682.22;5116777;28;20303;-81
2022/09/28 03:15:36;;;;;;;6.90;2.90;;;;;;;10.34;100.00;93692.16;5130392;27;20229;-79
2022/09/28 03:18:04;;;;;;;3.28;2.13;;;;;;;10.33;100.00;93691.38;5134827;27;20225;-79
2022/09/28 03:20:32;;;;;;;6.45;2.90;;;;;;;10.35;100.00;93711.91;5134730;27;20250;-79
2022/09/28 03:22:59;;;;;;;6.72;3.13;;;;;;;10.40;100.00;93696.16;5134391;27;20212;-78
2022/09/28 03:25:26;;;;;;;4.22;2.15;;;;;;;10.53;100.00;93705.78;5135142;27;20316;-80
2022/09/28 03:27:53;;;;;;;4.40;2.33;;;;;;;10.83;100.00;93691.78;5134473;27;20203;-78
2022/09/28 03:30:21;;;;;;;4.63;2.60;;;;;;;10.78;100.00;93702.91;5134246;27;20249;-79
2022/09/28 03:32:57;;;;;;;2.88;2.03;;;;;;;10.53;100.00;93700.34;5134783;27;20562;-78
2022/09/28 03:35:23;;;;;;;2.92;2.28;;;;;;;10.45;100.00;93704.03;5134867;27;20181;-78
2022/09/28 03:37:54;;;;;;;3.42;1.95;;;;;;;10.61;100.00;93707.53;5134479;27;20818;-79
2022/09/28 03:40:21;;;;;;;2.38;1.90;;;;;;;10.67;100.00;93700.69;5133907;27;20219;-78
2022/09/28 03:42:47;;;;;;;4.13;2.08;;;;;;;10.69;100.00;93698.44;5134172;27;20257;-79
2022/09/28 03:45:15;;;;;;;6.15;3.05;;;;;;;10.85;100.00;93700.34;5133892;27;20760;-78
2022/09/28 03:47:45;;;;;;;2.65;2.05;;;;;;;10.98;100.00;93699.09;5134287;27;20201;-80
2022/09/28 03:50:14;;;;;;;3.95;2.28;;;;;;;11.07;100.00;93702.38;5133931;27;20262;-80
2022/09/28 03:52:42;;;;;;;4.18;2.63;;;;;;;11.11;100.00;93703.25;5134382;27;20221;-77
2022/09/28 03:55:09;;;;;;;3.35;2.38;;;;;;;11.01;100.00;93698.41;5133349;27;20246;-77
2022/09/28 03:57:36;;;;;;;2.55;1.75;;;;;;;11.10;100.00;93715.25;5133629;27;20196;-75
2022/09/28 04:00:03;;;;;;;3.88;2.53;;;;;;;10.97;100.00;93708.38;5133041;27;20556;-79
2022/09/28 04:02:30;;;;;;;5.75;2.78;;;;;;;11.06;100.00;93710.91;5133173;27;20316;-78
2022/09/28 04:04:57;;;;;;;3.80;1.92;;;;;;;11.11;100.00;93714.09;5133241;27;20209;-78
2022/09/28 04:07:26;;;;;;;5.07;2.65;;;;;;;11.01;100.00;93701.09;5133420;27;20201;-77
2022/09/28 04:09:53;;;;;;;3.70;2.08;;;;;;;11.15;100.00;93703.34;5133358;27;20200;-79
2022/09/28 04:12:19;;;;;;;2.95;2.05;;;;;;;11.30;100.00;93700.59;5133026;27;20265;-77
2022/09/28 04:14:46;;;;;;;4.55;3.15;;;;;;;11.37;100.00;93700.75;5133181;27;20196;-77
2022/09/28 04:17:13;;;;;;;5.55;2.70;;;;;;;11.37;100.00;93700.75;5132939;27;20197;-77
2022/09/28 04:19:40;;;;;;;5.32;2.72;;;;;;;11.29;100.00;93696.31;5112654;28;20193;-78
2022/09/28 04:22:07;;;;;;;2.95;2.08;;;;;;;11.27;100.00;93695.88;5126224;27;20273;-78
2022/09/28 04:24:35;;;;;;;5.03;2.30;;;;;;;11.32;100.00;93709.19;5132987;27;20204;-77
2022/09/28 04:29:43;;;;;;;5.88;2.75;;;;;;;11.65;100.00;93707.91;5130420;27;20203;-78
2022/09/28 04:32:11;;;;;;;3.78;2.40;;;;;;;11.71;100.00;93710.00;5132294;27;20919;-78
2022/09/28 04:34:38;;;;;;;12.63;3.42;;;;;;;11.74;100.00;93711.22;5132525;27;20283;-78
2022/09/28 04:37:05;;;;;;;4.10;2.60;;;;;;;11.86;100.00;93705.66;5132523;27;20265;-78
2022/09/28 04:39:31;;;;;;;4.47;2.70;;;;;;;12.05;100.00;93713.78;5132564;27;20273;-77
2022/09/28 04:42:00;;;;;;;5.47;2.75;;;;;;;12.55;100.00;93703.84;5132960;27;20262;-78
2022/09/28 04:44:27;;;;;;;3.50;2.42;;;;;;;12.84;100.00;93698.88;5133247;27;20267;-77
2022/09/28 04:46:55;;;;;;;5.60;3.50;;;;;;;13.82;100.00;93687.81;5132589;27;20699;-76
2022/09/28 04:49:23;;;;;;;5.53;3.65;;;;;;;14.66;98.71;93684.44;5132413;27;20270;-76
2022/09/28 04:51:50;;;;;;;9.88;4.20;;;;;;;15.61;97.59;93681.63;5132327;27;20663;-77
2022/09/28 04:54:17;;;;;;;6.65;3.72;;;;;;;16.03;88.78;93669.31;5132158;27;20197;-80
2022/09/28 04:56:43;;;;;;;4.30;3.33;;;;;;;16.45;86.35;93676.06;5131628;27;20209;-78
2022/09/28 04:59:12;;;;;;;6.22;3.20;;;;;;;17.25;85.69;93677.31;5132342;27;20608;-77
2022/09/28 05:01:39;;;;;;;6.43;3.53;;;;;;;16.65;80.36;93675.38;5132277;27;20205;-77
2022/09/28 05:04:06;;;;;;;4.18;2.70;;;;;;;16.29;82.06;93663.53;5132217;27;20285;-78
2022/09/28 05:06:33;;;;;;;5.18;3.75;;;;;;;17.47;81.95;93678.06;5132140;27;20228;-78
2022/09/28 05:09:00;;;;;;;6.55;3.85;;;;;;;17.85;80.79;93670.94;5132220;27;20201;-77
2022/09/28 05:11:27;;;;;;;6.05;4.22;;;;;;;16.60;80.17;93689.38;5132192;27;20205;-77
2022/09/28 05:13:53;;;;;;;7.93;4.15;;;;;;;16.14;82.71;93692.00;5132290;27;20228;-77
2022/09/28 05:16:23;;;;;;;6.95;4.40;;;;;;;15.56;85.07;93700.34;5132298;27;20250;-77
2022/09/28 05:18:55;;;;;;;6.18;3.35;;;;;;;15.39;86.38;93688.13;5132448;27;20281;-77
2022/09/28 05:21:24;;;;;;;6.45;3.55;;;;;;;14.82;88.78;93695.88;5118355;27;20689;-77
2022/09/28 05:23:50;;;;;;;5.13;3.38;;;;;;;14.32;91.42;93699.28;5132009;27;20255;-78
2022/09/28 05:26:18;;;;;;;4.57;3.63;;;;;;;14.20;91.91;93703.06;5131219;27;20236;-78
2022/09/28 05:28:44;;;;;;;5.40;3.75;;;;;;;14.60;92.98;93701.53;5131691;27;20245;-77
2022/09/28 05:31:11;;;;;;;7.20;4.18;;;;;;;15.49;87.25;93702.97;5132267;27;20235;-78
2022/09/28 05:33:39;;;;;;;7.88;4.25;;;;;;;16.86;83.71;93687.47;5131870;27;20212;-77
2022/09/28 05:36:09;;;;;;;9.38;5.57;;;;;;;18.29;78.15;93683.28;5132044;27;20197;-78
2022/09/28 05:38:36;;;;;;;6.90;5.05;;;;;;;18.54;74.18;93677.66;5131383;27;20248;-77
2022/09/28 05:41:03;;;;;;;8.68;5.70;;;;;;;19.25;70.71;93685.41;5131785;27;20716;-76
2022/09/28 05:43:30;;;;;;;9.13;5.70;;;;;;;20.19;69.15;93682.09;5131776;27;20197;-77
2022/09/28 05:45:59;;;;;;;8.88;5.75;;;;;;;20.21;67.84;93697.00;5131579;27;20236;-77
2022/09/28 05:48:26;;;;;;;7.50;4.88;;;;;;;20.33;68.64;93687.44;5130276;27;20644;-77
2022/09/28 05:50:54;;;;;;;7.18;4.03;;;;;;;20.85;68.20;93685.16;5130500;27;20305;-77
2022/09/28 05:53:21;;;;;;;6.65;4.70;;;;;;;21.68;64.59;93677.16;5130999;27;20776;-77
2022/09/28 05:55:48;;;;;;;8.52;5.82;;;;;;;20.86;68.01;93677.69;5130402;27;20281;-76
2022/09/28 05:58:15;;;;;;;9.88;5.95;;;;;;;21.64;62.44;93681.94;5130459;27;20281;-75
2022/09/28 06:00:43;;;;;;;9.70;6.80;;;;;;;21.42;61.35;93678.00;5130763;27;20197;-76
2022/09/28 06:03:12;;;;;;;11.63;6.68;;;;;;;22.08;62.77;93682.72;5129737;27;20201;-76
2022/09/28 06:05:39;;;;;;;9.45;6.50;;;;;;;22.45;59.16;93679.59;5130220;27;20691;-75
2022/09/28 06:08:10;;;;;;;9.52;5.97;;;;;;;21.48;59.96;93690.09;5130622;27;20673;-75
2022/09/28 06:10:37;;;;;;;8.70;6.25;;;;;;;22.02;61.14;93695.44;5131176;27;20249;-75
2022/09/28 06:13:05;;;;;;;12.73;6.00;;;;;;;20.13;66.28;93692.00;5129816;27;20591;-75
2022/09/28 06:15:35;;;;;;;9.30;6.78;;;;;;;19.61;69.54;93702.38;5130625;27;20200;-75
2022/09/28 06:18:05;;;;;;;9.88;7.05;;;;;;;18.98;70.44;93708.00;5129338;27;20289;-75
2022/09/28 06:20:34;;;;;;;10.35;7.20;;;;;;;18.08;74.03;93717.06;5130339;27;20250;-74
2022/09/28 06:23:01;;;;;;;10.18;7.40;;;;;;;19.98;70.22;93701.59;5130450;27;20201;-75
2022/09/28 06:25:29;;;;;;;10.90;7.15;;;;;;;21.28;64.29;93690.81;5114295;27;20217;-75
2022/09/28 06:27:57;;;;;;;9.43;6.20;;;;;;;20.49;65.69;93698.66;5129663;27;20656;-74
2022/09/28 06:30:25;;;;;;;9.32;6.95;;;;;;;18.99;71.19;93698.56;5129603;27;20652;-73
2022/09/28 06:32:55;;;;;;;11.27;6.75;;;;;;;18.46;73.24;93710.59;5130231;27;20205;-73
2022/09/28 06:35:22;;;;;;;12.52;7.40;;;;;;;17.66;78.27;93721.47;5129894;27;20212;-74
2022/09/28 06:37:49;;;;;;;15.60;8.50;;;;;;;16.70;81.64;93721.47;5129322;27;20216;-74
2022/09/28 06:40:17;;;;;;;12.65;8.10;;;;;;;17.04;82.92;93721.91;5129014;27;20250;-73
2022/09/28 06:42:54;;;;;;;12.88;8.63;;;;;;;16.28;84.45;93719.38;5129344;27;20568;-73
2022/09/28 06:45:23;;;;;;;17.35;10.10;;;;;;;15.73;86.33;93743.31;5128945;27;20307;-73
2022/09/28 06:47:53;;;;;;;16.20;7.85;;;;;;;15.49;88.42;93736.50;5129503;27;20316;-74
2022/09/28 06:50:19;;;;;;;10.32;6.18;;;;;;;16.34;86.05;93723.31;5128272;27;20240;-74
2022/09/28 06:52:50;;;;;;;11.75;6.45;;;;;;;16.54;83.47;93736.63;5129482;27;20731;-75
2022/09/28 06:55:16;;;;;;;15.43;7.35;;;;;;;16.11;84.56;93725.56;5129230;27;20201;-74
2022/09/28 06:57:45;;;;;;;16.25;10.63;;;;;;;16.82;85.29;93738.66;5129413;27;20262;-73
2022/09/28 07:00:13;;;;;;;18.48;10.95;;;;;;;18.36;78.78;93722.41;5115473;27;20228;-74
2022/09/28 07:02:39;;;;;;;17.70;10.60;;;;;;;18.29;77.28;93716.19;5128847;27;20656;-74
2022/09/28 07:05:08;;;;;;;17.40;9.82;;;;;;;17.91;76.13;93728.84;5128958;27;20204;-74
2022/09/28 07:07:35;;;;;;;14.95;7.85;;;;;;;17.89;77.49;93731.22;5122720;28;20583;-74
2022/09/28 07:10:02;;;;;;;11.82;6.25;;;;;;;17.48;77.83;93731.66;5129059;28;20714;-73
2022/09/28 07:12:29;;;;;;;15.15;7.13;;;;;;;17.92;79.53;93728.44;5128915;28;20200;-73
2022/09/28 07:14:57;;;;;;;20.05;8.13;;;;;;;17.66;79.54;93728.91;5128862;27;20201;-74
2022/09/28 07:17:24;;;;;;;11.35;6.35;;;;;;;17.42;79.19;93735.97;5128748;27;20262;-74
2022/09/28 07:19:52;;;;;;;13.93;7.88;;;;;;;17.11;80.86;93736.75;5128793;28;20672;-73
2022/09/28 07:22:19;;;;;;;18.80;8.85;;;;;;;17.04;80.78;93743.78;5129065;28;20245;-73
2022/09/28 07:24:47;;;;;;;18.23;8.63;;;;;;;16.94;81.15;93733.63;5129137;27;20213;-73
2022/09/28 07:27:14;;;;;;;15.18;6.63;;;;;;;17.28;80.99;93730.50;5128626;28;20315;-73
2022/09/28 07:29:41;;;;;;;11.80;6.35;;;;;;;17.53;80.89;93744.16;5128918;28;20261;-73
2022/09/28 07:32:09;;;;;;;20.10;8.52;;;;;;;17.27;81.09;93748.09;5128912;27;20207;-73
2022/09/28 07:34:40;;;;;;;20.13;9.77;;;;;;;18.03;78.61;93747.63;5129261;28;20854;-73
2022/09/28 07:37:09;;;;;;;22.38;12.35;;;;;;;17.95;78.38;93740.59;5129412;27;20203;-73
2022/09/28 07:41:10;;;;;;;18.23;11.93;;;;;;;18.24;76.86;93747.53;5128848;28;20201;-74
2022/09/28 07:42:23;;;;;;;18.30;11.32;;;;;;;18.20;75.98;93755.00;5116293;28;20246;-72
2022/09/28 07:44:50;;;;;;;18.08;11.55;;;;;;;18.89;74.71;93754.28;5128712;28;20575;-73
2022/09/28 07:47:25;;;;;;;17.90;10.48;;;;;;;18.58;74.62;93739.59;5128384;27;20233;-72
2022/09/28 07:49:53;;;;;;;14.80;9.35;;;;;;;18.62;73.78;93734.84;5127823;28;20699;-73
2022/09/28 07:52:22;;;;;;;16.90;10.07;;;;;;;18.59;72.90;93745.84;5128467;27;20722;-73
2022/09/28 07:54:50;;;;;;;18.98;9.40;;;;;;;18.15;75.36;93733.47;5128730;28;20213;-73
2022/09/28 07:57:18;;;;;;;15.15;9.32;;;;;;;17.71;75.84;93753.16;5128652;27;20751;-73
2022/09/28 07:59:45;;;;;;;7.75;4.75;;;;;;;17.61;75.35;93757.47;5128590;28;20668;-73
2022/09/28 08:02:13;;;;;;;12.18;5.72;;;;;;;17.04;78.49;93754.72;5128582;27;20664;-73
2022/09/28 08:04:41;;;;;;;10.55;6.05;;;;;;;17.18;77.85;93761.38;5131609;27;20261;-73
2022/09/28 08:07:09;;;;;;;11.23;6.35;;;;;;;17.56;77.14;93766.06;5132401;27;20228;-72
2022/09/28 08:09:36;;;;;;;11.93;5.78;;;;;;;16.96;78.19;93758.63;5132280;27;20249;-71
2022/09/28 08:12:04;;;;;;;8.00;5.10;;;;;;;16.88;79.77;93756.25;5132099;27;20201;-73
2022/09/28 08:14:33;;;;;;;10.68;5.57;;;;;;;17.22;79.36;93770.38;5131659;27;20578;-73
2022/09/28 08:17:00;;;;;;;13.77;8.30;;;;;;;17.28;78.82;93766.84;5131783;27;20336;-74
2022/09/28 08:21:43;;;;;;;14.50;5.65;;;;;;;17.16;78.86;93771.94;5132097;27;20212;-73
2022/09/28 08:22:16;;;;;;;11.88;7.15;;;;;;;17.00;79.33;93770.34;5131758;27;20200;-72
2022/09/28 08:24:44;;;;;;;18.55;8.38;;;;;;;17.12;79.49;93760.97;5132293;27;20228;-73
2022/09/28 08:27:11;;;;;;;10.27;5.55;;;;;;;17.26;79.61;93771.16;5131488;27;20220;-72
2022/09/28 08:29:37;;;;;;;10.70;5.10;;;;;;;17.79;78.40;93764.88;5131822;27;20197;-73
2022/09/28 08:32:06;;;;;;;8.35;4.15;;;;;;;18.03;76.58;93755.84;5131502;27;20213;-73
2022/09/28 08:34:34;;;;;;;8.68;6.13;;;;;;;17.92;76.08;93768.78;5131837;27;20231;-73
2022/09/28 08:37:01;;;;;;;7.55;4.80;;;;;;;17.99;76.31;93775.03;5131320;27;20201;-73
2022/09/28 08:39:29;;;;;;;12.43;4.90;;;;;;;18.31;75.62;93752.97;5131513;27;20699;-73
2022/09/28 08:42:07;;;;;;;7.80;4.28;;;;;;;18.55;75.89;93745.06;5131419;27;20201;-73
2022/09/28 08:44:41;;;;;;;9.07;3.60;;;;;;;18.64;74.48;93751.69;5131987;27;20189;-74
2022/09/28 08:50:00;;;;;;;8.07;3.60;;;;;;;18.78;72.78;93740.66;5130462;27;20366;-72
2022/09/28 08:52:33;;;;;;;6.82;4.55;;;;;;;19.06;72.05;93736.16;5131666;27;20212;-73
2022/09/28 08:55:07;;;;;;;9.77;3.88;;;;;;;19.12;72.56;93735.34;5131871;27;20245;-72
2022/09/28 08:57:43;;;;;;;5.05;2.42;;;;;;;18.84;70.39;93723.78;5131325;27;20189;-74
2022/09/28 09:00:17;;;;;;;7.10;2.45;;;;;;;19.09;70.88;93727.91;5117651;27;20193;-74
2022/09/28 09:02:45;;;;;;;7.50;4.18;;;;;;;18.99;71.12;93730.72;5130997;27;20189;-73
2022/09/28 09:05:14;;;;;;;5.88;3.25;;;;;;;19.21;72.17;93728.59;5130730;27;20673;-73
2022/09/28 09:08:04;;;;;;;5.93;2.30;;;;;;;19.09;70.50;93730.66;5130758;27;20221;-74
2022/09/28 09:10:46;;;;;;;5.82;3.08;;;;;;;19.50;69.18;93732.69;5131128;27;20185;-73
2022/09/28 09:13:32;;;;;;;2.78;1.40;;;;;;;19.10;68.70;93732.22;5116931;27;21075;-73
2022/09/28 09:16:11;;;;;;;8.02;2.28;;;;;;;19.09;68.55;93725.16;5116802;27;20279;-73
2022/09/28 09:18:43;;;;;;;4.63;2.30;;;;;;;19.15;69.13;93729.00;5131563;27;20197;-72
2022/09/28 09:21:15;;;;;;;3.35;2.40;;;;;;;19.43;67.45;93728.00;5130916;27;20201;-73
2022/09/28 09:23:54;;;;;;;3.50;2.03;;;;;;;19.35;67.57;93720.25;5131867;27;20281;-73
2022/09/28 09:26:35;;;;;;;3.95;2.08;;;;;;;19.31;67.89;93708.50;5119282;27;20341;-79
2022/09/28 09:29:26;;;;;;;2.75;2.30;;;;;;;19.30;68.57;93717.91;5131214;27;20193;-73
2022/09/28 09:32:09;;;;;;;7.00;3.00;;;;;;;19.36;68.69;93716.31;5131318;27;20204;-73
2022/09/28 09:34:58;;;;;;;4.97;3.20;;;;;;;19.54;69.41;93703.25;5130849;27;20242;-73
2022/09/28 09:37:39;;;;;;;6.45;2.75;;;;;;;19.46;66.97;93704.44;5116824;27;20221;-72
2022/09/28 09:40:24;;;;;;;4.20;1.65;;;;;;;19.51;65.92;93702.09;5130579;27;20196;-72
2022/09/28 09:43:06;;;;;;;9.93;2.00;;;;;;;19.56;65.94;93706.34;5130376;27;20197;-72
2022/09/28 09:45:49;;;;;;;5.22;2.30;;;;;;;19.53;65.25;93704.41;5130453;27;20189;-73
2022/09/28 09:48:24;;;;;;;5.05;2.00;;;;;;;19.90;64.89;93705.63;5130127;27;20270;-74
2022/09/28 09:50:56;;;;;;;2.25;2.03;;;;;;;20.10;65.38;93692.81;5130174;27;20832;-75
2022/09/28 09:53:26;;;;;;;2.83;1.90;;;;;;;19.83;63.37;93690.75;5130871;27;20193;-74
2022/09/28 09:55:58;;;;;;;2.75;1.55;;;;;;;19.83;63.02;93696.25;5131316;27;20585;-73
2022/09/28 09:58:33;;;;;;;5.90;2.35;;;;;;;20.01;62.96;93706.28;5131330;27;20276;-73
2022/09/28 10:01:08;;;;;;;7.03;2.55;;;;;;;20.12;62.08;93702.22;5131501;27;20208;-73
2022/09/28 10:03:39;;;;;;;3.58;2.22;;;;;;;20.32;62.06;93704.34;5117901;27;20196;-73
2022/09/28 10:06:11;;;;;;;6.35;2.13;;;;;;;20.16;60.93;93696.69;5131094;27;20289;-74
2022/09/28 10:08:44;;;;;;;4.32;2.30;;;;;;;20.35;61.36;93704.31;5130301;27;20280;-73
2022/09/28 10:11:15;;;;;;;4.28;2.25;;;;;;;20.32;60.74;93707.09;5129914;27;20200;-74
2022/09/28 10:13:43;;;;;;;4.80;2.25;;;;;;;20.52;61.08;93703.31;5129920;27;20220;-73
2022/09/28 10:16:10;;;;;;;6.22;2.25;;;;;;;20.55;58.30;93708.00;5129916;27;20233;-73
2022/09/28 10:18:37;;;;;;;3.78;1.80;;;;;;;20.53;58.02;93690.34;5130147;27;20254;-74
2022/09/28 10:21:05;;;;;;;2.42;1.90;;;;;;;20.72;56.81;93688.91;5129900;27;20249;-74
2022/09/28 10:23:36;;;;;;;3.05;1.95;;;;;;;20.75;57.98;93688.06;5129727;27;20200;-76
2022/09/28 10:26:05;;;;;;;3.45;1.70;;;;;;;20.83;56.96;93675.75;5128385;27;20601;-74
2022/09/28 10:28:39;;;;;;;4.95;1.88;;;;;;;20.94;56.13;93673.63;5129257;27;20289;-74
2022/09/28 10:31:39;;;;;;;2.28;1.60;;;;;;;20.96;56.06;93665.72;5129119;27;20534;-73
2022/09/28 10:34:07;;;;;;;6.25;1.90;;;;;;;21.17;56.06;93665.41;5129101;27;20244;-73
2022/09/28 10:36:46;;;;;;;3.08;1.60;;;;;;;21.19;57.44;93663.00;5128999;27;20612;-73
2022/09/28 10:39:27;;;;;;;3.50;1.92;;;;;;;21.22;55.11;93667.69;5116759;27;20189;-73
2022/09/28 10:41:54;;;;;;;5.15;1.90;;;;;;;21.23;56.75;93663.75;5129111;27;20197;-73
2022/09/28 10:44:22;;;;;;;2.15;1.60;;;;;;;21.15;54.56;93667.78;5129156;27;20269;-73
2022/09/28 10:46:59;;;;;;;3.35;1.58;;;;;;;21.28;55.53;93659.75;5129278;27;20323;-73
2022/09/28 10:49:26;;;;;;;1.70;1.60;;;;;;;21.56;53.33;93658.47;5129076;27;20228;-73
2022/09/28 10:51:55;;;;;;;2.58;1.52;;;;;;;21.68;52.03;93654.31;5129063;27;20233;-73
2022/09/28 10:54:23;;;;;;;2.30;1.40;;;;;;;21.86;51.45;93649.25;5129392;27;20200;-73
2022/09/28 10:56:51;;;;;;;2.08;1.67;;;;;;;21.86;50.31;93652.00;5129289;27;20265;-74
2022/09/28 10:59:35;;;;;;;2.38;1.20;;;;;;;22.18;51.03;93640.34;5129330;27;20209;-73
2022/09/28 11:02:17;;;;;;;3.15;1.33;;;;;;;22.31;48.24;93641.25;5118437;27;20443;-74
2022/09/28 11:04:51;;;;;;;2.97;1.30;;;;;;;22.59;47.69;93629.59;5129455;27;20193;-73
2022/09/28 11:07:19;;;;;;;3.65;1.52;;;;;;;22.62;48.50;93631.53;5128833;28;20217;-73
2022/09/28 11:09:48;;;;;;;3.63;1.40;;;;;;;22.78;48.23;93625.28;5129285;28;20217;-73
2022/09/28 11:12:18;;;;;;;2.80;1.20;;;;;;;22.44;48.14;93622.84;5129380;27;20208;-74
2022/09/28 11:14:47;;;;;;;2.17;1.15;;;;;;;21.98;50.55;93624.59;5115908;28;20194;-73
2022/09/28 11:17:26;;;;;;;4.72;1.45;;;;;;;21.58;51.51;93623.00;5128648;27;20730;-73
2022/09/28 11:19:53;;;;;;;1.88;1.40;;;;;;;21.51;50.98;93628.63;5126994;28;20271;-75
2022/09/28 11:22:27;;;;;;;2.42;1.55;;;;;;;21.63;52.47;93625.25;5129365;27;20216;-74
2022/09/28 11:25:23;;;;;;;4.72;1.38;;;;;;;22.00;52.23;93615.13;5129325;28;20277;-73
2022/09/28 11:28:00;;;;;;;2.10;1.50;;;;;;;22.12;48.79;93608.97;5121887;28;20719;-73
2022/09/28 11:30:31;;;;;;;1.95;1.30;;;;;;;22.23;47.89;93601.25;5128971;28;20200;-73
2022/09/28 11:33:05;;;;;;;2.00;1.30;;;;;;;22.61;47.39;93599.59;5128978;28;20185;-73
2022/09/28 11:35:46;;;;;;;1.40;1.15;;;;;;;23.13;47.57;93590.47;5128791;27;20285;-74
2022/09/28 11:38:32;;;;;;;2.72;1.42;;;;;;;23.56;45.20;93590.19;5131452;27;20802;-74
2022/09/28 11:41:17;;;;;;;2.13;1.30;;;;;;;23.74;46.71;93578.66;5120771;27;20538;-72
2022/09/28 11:44:13;;;;;;;2.40;1.45;;;;;;;23.34;44.89;93594.72;5132515;27;20846;-73
2022/09/28 11:46:45;;;;;;;2.75;1.50;;;;;;;22.89;45.54;93597.41;5132382;27;20413;-73
2022/09/28 11:49:27;;;;;;;1.95;1.45;;;;;;;23.04;45.45;93595.84;5132325;27;20246;-73
2022/09/28 11:51:58;;;;;;;3.08;1.58;;;;;;;23.16;45.83;93606.19;5132220;27;20695;-73